Time;durP1;ratioP1;P1;durP2;ratioP2;P2;SDS_P1;SDS_P2;PMS_P1;PMS_P2;Temp;Humidity;BMP_temperature;BMP_pressure;BME280_temperature;BME280_humidity;BME280_pressure;Samples;Min_cycle;Max_cycle;Signal;HPM_P1;HPM_P2
2021/09/12 00:01:01;;;;;;;11.77;6.57;;;;;;;16.66;100.00;101135.94;5053040;28;20445;-67
2021/09/12 00:03:27;;;;;;;11.53;6.27;;;;;;;16.52;100.00;101138.09;5052619;28;20939;-69
2021/09/12 00:05:55;;;;;;;9.53;5.47;;;;;;;16.50;100.00;101135.69;5053061;28;20513;-68
2021/09/12 00:08:22;;;;;;;8.17;5.17;;;;;;;16.53;100.00;101131.50;5052975;28;20450;-68
2021/09/12 00:10:48;;;;;;;10.77;5.77;;;;;;;16.56;100.00;101137.13;5052991;28;20442;-68
2021/09/12 00:13:15;;;;;;;10.77;5.27;;;;;;;16.59;100.00;101136.44;5052914;28;20441;-67
2021/09/12 00:15:42;;;;;;;9.23;6.37;;;;;;;16.64;100.00;101139.03;5052788;28;20446;-68
2021/09/12 00:18:08;;;;;;;10.83;6.63;;;;;;;16.71;100.00;101130.28;5052886;28;20450;-67
2021/09/12 00:20:35;;;;;;;8.50;4.77;;;;;;;16.74;100.00;101132.41;5052847;28;20441;-68
2021/09/12 00:23:03;;;;;;;14.00;5.97;;;;;;;16.82;100.00;101128.84;5052554;28;20847;-67
2021/09/12 00:25:29;;;;;;;11.73;5.60;;;;;;;16.87;100.00;101125.09;5052707;28;20882;-67
2021/09/12 00:27:56;;;;;;;13.77;5.97;;;;;;;16.90;100.00;101129.91;5052822;28;20449;-67
2021/09/12 00:30:22;;;;;;;15.33;7.23;;;;;;;16.95;100.00;101120.69;5052761;28;20460;-68
2021/09/12 00:32:48;;;;;;;12.03;6.60;;;;;;;16.99;100.00;101132.59;5052458;28;20939;-66
2021/09/12 00:35:15;;;;;;;8.60;5.93;;;;;;;17.02;100.00;101126.47;5052600;28;20854;-69
2021/09/12 00:37:43;;;;;;;13.00;6.80;;;;;;;17.02;100.00;101123.72;5052594;28;20477;-69
2021/09/12 00:40:12;;;;;;;9.57;6.37;;;;;;;17.03;100.00;101122.59;5052557;28;20504;-68
2021/09/12 00:42:38;;;;;;;11.17;6.03;;;;;;;17.06;100.00;101122.72;5052644;28;20442;-69
2021/09/12 00:45:06;;;;;;;15.67;6.50;;;;;;;17.06;100.00;101127.41;5052297;28;20503;-69
2021/09/12 00:47:32;;;;;;;11.33;6.53;;;;;;;16.98;100.00;101126.31;5053934;28;20446;-70
2021/09/12 00:49:58;;;;;;;10.20;6.00;;;;;;;16.92;100.00;101129.59;5056357;28;20450;-68
2021/09/12 00:52:26;;;;;;;10.57;7.40;;;;;;;16.86;100.00;101127.00;5056253;28;20442;-69
2021/09/12 00:54:55;;;;;;;8.83;6.57;;;;;;;16.81;100.00;101132.69;5056164;28;20465;-68
2021/09/12 00:57:24;;;;;;;11.73;5.80;;;;;;;16.76;100.00;101134.81;5056067;28;20489;-70
2021/09/12 00:59:53;;;;;;;10.20;6.53;;;;;;;16.77;100.00;101131.72;5056148;28;20445;-68
2021/09/12 01:02:19;;;;;;;9.30;5.60;;;;;;;16.79;100.00;101128.69;5056059;28;20454;-68
2021/09/12 01:04:47;;;;;;;15.60;7.03;;;;;;;16.82;100.00;101123.34;5055982;28;21011;-68
2021/09/12 01:07:13;;;;;;;8.57;5.50;;;;;;;16.77;100.00;101133.66;5056038;28;20469;-68
2021/09/12 01:09:41;;;;;;;11.80;5.83;;;;;;;16.80;100.00;101125.59;5056002;28;20521;-69
2021/09/12 01:12:09;;;;;;;10.93;6.63;;;;;;;16.81;100.00;101129.94;5055956;28;20438;-68
2021/09/12 01:14:37;;;;;;;11.17;6.30;;;;;;;16.82;100.00;101123.34;5055830;28;20469;-69
2021/09/12 01:17:07;;;;;;;9.43;5.83;;;;;;;16.84;100.00;101125.75;5055763;28;20486;-69
2021/09/12 01:19:34;;;;;;;12.53;6.73;;;;;;;16.83;100.00;101127.69;5055188;28;20848;-68
2021/09/12 01:22:04;;;;;;;15.10;7.20;;;;;;;16.81;100.00;101118.19;5055708;28;20449;-67
2021/09/12 01:24:33;;;;;;;12.33;5.53;;;;;;;16.80;100.00;101120.13;5055310;28;21009;-67
2021/09/12 01:27:00;;;;;;;9.67;5.60;;;;;;;16.79;100.00;101124.00;5055277;28;20959;-67
2021/09/12 01:29:27;;;;;;;10.70;6.67;;;;;;;16.78;100.00;101116.94;5055603;28;20829;-68
2021/09/12 01:31:53;;;;;;;8.47;5.93;;;;;;;16.81;100.00;101118.19;5055187;28;20450;-67
2021/09/12 01:34:20;;;;;;;8.00;5.97;;;;;;;16.80;100.00;101113.88;5055182;28;20460;-67
2021/09/12 01:36:46;;;;;;;10.57;6.07;;;;;;;16.82;100.00;101112.41;5055407;28;20504;-68
2021/09/12 01:39:12;;;;;;;13.60;6.67;;;;;;;16.82;100.00;101111.59;5055422;28;20445;-67
2021/09/12 01:41:41;;;;;;;8.93;6.43;;;;;;;16.80;100.00;101119.34;5054905;28;20485;-67
2021/09/12 01:44:08;;;;;;;11.17;6.43;;;;;;;16.80;100.00;101113.88;5055131;28;20473;-67
2021/09/12 01:46:34;;;;;;;9.53;7.17;;;;;;;16.78;100.00;101124.34;5055494;28;20442;-68
2021/09/12 01:49:03;;;;;;;9.73;5.40;;;;;;;16.79;100.00;101121.28;5054854;28;20442;-68
2021/09/12 01:51:30;;;;;;;12.63;7.57;;;;;;;16.77;100.00;101117.25;5055164;28;20446;-69
2021/09/12 01:53:56;;;;;;;10.97;5.73;;;;;;;16.72;100.00;101120.97;5054747;28;21049;-67
2021/09/12 01:56:24;;;;;;;9.87;6.30;;;;;;;16.76;100.00;101130.13;5054908;28;20481;-68
2021/09/12 01:58:51;;;;;;;12.20;5.53;;;;;;;16.73;100.00;101119.84;5053963;28;20438;-67
2021/09/12 02:01:18;;;;;;;13.73;6.50;;;;;;;16.68;100.00;101124.66;5055054;28;20450;-67
2021/09/12 02:03:45;;;;;;;11.90;6.40;;;;;;;16.62;100.00;101118.59;5054904;28;20462;-67
2021/09/12 02:06:12;;;;;;;10.03;7.07;;;;;;;16.58;100.00;101107.50;5054956;28;20450;-67
2021/09/12 02:08:38;;;;;;;15.30;7.60;;;;;;;16.56;100.00;101114.44;5054788;28;20493;-69
2021/09/12 02:11:05;;;;;;;11.50;6.47;;;;;;;16.46;100.00;101121.03;5054816;28;20465;-68
2021/09/12 02:13:31;;;;;;;14.10;7.03;;;;;;;16.45;100.00;101119.44;5054664;28;20464;-68
2021/09/12 02:15:59;;;;;;;10.10;7.60;;;;;;;16.47;100.00;101130.06;5054650;28;20442;-67
2021/09/12 02:18:25;;;;;;;11.63;6.60;;;;;;;16.46;100.00;101121.03;5054533;28;20488;-68
2021/09/12 02:20:52;;;;;;;10.57;6.23;;;;;;;16.48;100.00;101121.53;5054834;28;20439;-68
2021/09/12 02:23:18;;;;;;;10.87;6.33;;;;;;;16.51;100.00;101120.06;5054469;28;20480;-68
2021/09/12 02:25:45;;;;;;;13.90;6.70;;;;;;;16.53;100.00;101115.88;5054407;28;20442;-67
2021/09/12 02:28:11;;;;;;;9.87;6.30;;;;;;;16.57;100.00;101121.50;5054434;28;20434;-67
2021/09/12 02:30:38;;;;;;;9.57;6.90;;;;;;;16.53;100.00;101120.56;5053991;28;20482;-67
2021/09/12 02:33:06;;;;;;;9.80;6.13;;;;;;;16.54;100.00;101128.41;5054322;28;20454;-67
2021/09/12 02:35:33;;;;;;;11.40;6.47;;;;;;;16.55;100.00;101124.56;5054132;28;20458;-68
2021/09/12 02:37:59;;;;;;;13.90;8.40;;;;;;;16.52;100.00;101116.22;5054496;28;20485;-67
2021/09/12 02:40:26;;;;;;;12.47;7.07;;;;;;;16.50;100.00;101115.72;5054206;28;20442;-68
2021/09/12 02:42:52;;;;;;;11.73;6.50;;;;;;;16.52;100.00;101113.50;5054101;28;20825;-67
2021/09/12 02:45:19;;;;;;;11.53;7.00;;;;;;;16.47;100.00;101119.13;5053631;28;20521;-68
2021/09/12 02:47:45;;;;;;;8.83;5.90;;;;;;;16.46;100.00;101121.03;5054076;28;20836;-67
2021/09/12 02:50:13;;;;;;;8.07;5.50;;;;;;;16.46;100.00;101120.25;5053674;28;20866;-67
2021/09/12 02:52:39;;;;;;;11.90;6.10;;;;;;;16.46;100.00;101120.25;5053971;28;20454;-66
2021/09/12 02:55:08;;;;;;;13.03;6.57;;;;;;;16.44;100.00;101128.00;5053868;28;20463;-67
2021/09/12 02:57:34;;;;;;;11.27;6.20;;;;;;;16.46;100.00;101120.25;5053780;28;20489;-69
2021/09/12 03:00:01;;;;;;;12.37;6.83;;;;;;;16.36;100.00;101121.41;5053893;28;20443;-69
2021/09/12 03:02:28;;;;;;;16.67;8.50;;;;;;;16.32;100.00;101106.78;5053774;28;20528;-69
2021/09/12 03:04:54;;;;;;;11.63;5.50;;;;;;;16.26;100.00;101110.84;5053420;28;20462;-67
2021/09/12 03:07:22;;;;;;;14.70;8.87;;;;;;;16.26;100.00;101110.84;5053397;28;20936;-67
2021/09/12 03:09:48;;;;;;;13.60;7.17;;;;;;;16.28;100.00;101111.31;5053485;28;20449;-66
2021/09/12 03:12:15;;;;;;;11.00;6.77;;;;;;;16.29;100.00;101116.47;5053659;28;20453;-67
2021/09/12 03:14:41;;;;;;;13.27;6.77;;;;;;;16.29;100.00;101111.00;5053522;28;20470;-67
2021/09/12 03:17:08;;;;;;;12.93;7.30;;;;;;;16.29;100.00;101108.25;5053498;28;20489;-66
2021/09/12 03:19:34;;;;;;;10.97;6.33;;;;;;;16.29;100.00;101111.00;5053455;28;20450;-67
2021/09/12 03:22:01;;;;;;;14.40;7.83;;;;;;;16.32;100.00;101118.53;5053491;28;20450;-66
2021/09/12 03:24:29;;;;;;;14.00;8.50;;;;;;;16.33;100.00;101111.91;5053336;28;20462;-66
2021/09/12 03:26:55;;;;;;;14.50;7.80;;;;;;;16.31;100.00;101108.72;5053380;28;20439;-67
2021/09/12 03:29:21;;;;;;;11.20;6.43;;;;;;;16.31;100.00;101105.19;5053365;28;20457;-66
2021/09/12 03:31:48;;;;;;;21.97;8.20;;;;;;;16.31;100.00;101113.41;5053354;28;20438;-65
2021/09/12 03:34:14;;;;;;;13.23;7.47;;;;;;;16.29;100.00;101113.72;5053247;28;20466;-67
2021/09/12 03:36:41;;;;;;;15.03;8.87;;;;;;;16.25;100.00;101104.56;5053216;28;20431;-67
2021/09/12 03:39:07;;;;;;;15.30;8.00;;;;;;;16.22;100.00;101105.22;5053229;28;20442;-66
2021/09/12 03:41:35;;;;;;;10.37;6.03;;;;;;;16.23;100.00;101106.81;5053214;28;20442;-66
2021/09/12 03:44:02;;;;;;;10.83;6.30;;;;;;;16.20;100.00;101099.25;5052888;28;20478;-66
2021/09/12 03:46:28;;;;;;;13.33;7.23;;;;;;;16.12;100.00;101103.66;5053424;28;20441;-67
2021/09/12 03:48:54;;;;;;;11.90;7.30;;;;;;;16.04;100.00;101098.19;5053136;28;20445;-66
2021/09/12 03:51:21;;;;;;;13.77;7.70;;;;;;;15.96;100.00;101090.81;5053069;28;20442;-67
2021/09/12 03:53:47;;;;;;;14.53;8.07;;;;;;;15.93;100.00;101095.00;5052678;28;20465;-67
2021/09/12 03:56:14;;;;;;;12.93;6.73;;;;;;;15.83;100.00;101098.06;5053082;28;20442;-68
2021/09/12 03:58:41;;;;;;;12.63;6.80;;;;;;;15.86;100.00;101102.91;5053153;28;20518;-67
2021/09/12 04:01:08;;;;;;;18.13;6.90;;;;;;;15.89;100.00;101103.06;5053061;28;20446;-67
2021/09/12 04:03:34;;;;;;;9.10;6.40;;;;;;;15.93;100.00;101099.66;5053000;28;20451;-67
2021/09/12 04:06:01;;;;;;;13.70;8.13;;;;;;;15.96;100.00;101091.63;5053008;28;20457;-65
2021/09/12 04:08:27;;;;;;;11.60;6.27;;;;;;;15.94;100.00;101087.59;5052925;28;20450;-67
2021/09/12 04:10:54;;;;;;;11.57;6.10;;;;;;;15.97;100.00;101095.16;5052904;28;20449;-66
2021/09/12 04:13:20;;;;;;;12.07;6.53;;;;;;;15.99;100.00;101099.16;5052928;28;20446;-67
2021/09/12 04:15:48;;;;;;;14.30;7.60;;;;;;;15.99;100.00;101098.38;5052897;28;20438;-66
2021/09/12 04:18:14;;;;;;;11.57;6.80;;;;;;;16.00;100.00;101099.97;5053173;28;20474;-68
2021/09/12 04:20:41;;;;;;;12.13;7.97;;;;;;;16.00;100.00;101086.31;5052864;28;20446;-67
2021/09/12 04:23:07;;;;;;;13.50;7.20;;;;;;;15.99;100.00;101093.72;5055453;28;20446;-66
2021/09/12 04:25:34;;;;;;;9.20;6.50;;;;;;;15.96;100.00;101091.63;5056694;28;20469;-68
2021/09/12 04:28:00;;;;;;;10.63;6.57;;;;;;;15.95;100.00;101091.94;5056769;28;20441;-67
2021/09/12 04:30:26;;;;;;;10.70;5.50;;;;;;;15.89;100.00;101086.66;5056346;28;20862;-68
2021/09/12 04:32:54;;;;;;;15.33;8.47;;;;;;;15.88;100.00;101090.50;5056380;28;20450;-66
2021/09/12 04:35:21;;;;;;;17.00;6.90;;;;;;;15.87;100.00;101088.09;5056471;28;20466;-66
2021/09/12 04:37:47;;;;;;;11.57;6.97;;;;;;;15.89;100.00;101096.75;5056480;28;20477;-67
2021/09/12 04:40:14;;;;;;;23.23;8.87;;;;;;;15.84;100.00;101095.00;5056454;28;20544;-68
2021/09/12 04:42:40;;;;;;;12.00;7.30;;;;;;;15.81;100.00;101098.41;5056411;28;20438;-67
2021/09/12 04:45:07;;;;;;;13.00;7.50;;;;;;;15.81;100.00;101098.41;5056119;28;20470;-66
2021/09/12 04:47:34;;;;;;;14.13;8.07;;;;;;;15.79;100.00;101097.09;5056278;28;20438;-67
2021/09/12 04:50:01;;;;;;;13.70;7.10;;;;;;;15.74;100.00;101095.34;5056336;28;20431;-67
2021/09/12 04:52:28;;;;;;;9.90;6.37;;;;;;;15.74;100.00;101100.81;5056226;28;20442;-68
2021/09/12 04:54:54;;;;;;;10.07;6.63;;;;;;;15.73;100.00;101103.88;5056226;28;20458;-66
2021/09/12 04:57:21;;;;;;;16.20;7.70;;;;;;;15.60;100.00;101098.22;5056115;28;20485;-68
2021/09/12 04:59:47;;;;;;;12.10;7.30;;;;;;;15.55;100.00;101103.06;5055979;28;20446;-68
2021/09/12 05:02:14;;;;;;;9.70;6.00;;;;;;;15.54;100.00;101106.91;5056025;28;20437;-67
2021/09/12 05:04:40;;;;;;;13.30;7.37;;;;;;;15.54;100.00;101102.25;5055956;28;20836;-68
2021/09/12 05:07:08;;;;;;;10.17;6.43;;;;;;;15.50;100.00;101101.28;5055979;28;20452;-66
2021/09/12 05:09:34;;;;;;;12.20;6.30;;;;;;;15.51;100.00;101107.53;5055975;28;20468;-66
2021/09/12 05:12:00;;;;;;;10.43;6.10;;;;;;;15.50;100.00;101105.94;5055897;28;20450;-67
2021/09/12 05:14:27;;;;;;;13.13;6.60;;;;;;;15.55;100.00;101109.31;5055754;28;20462;-68
2021/09/12 05:16:54;;;;;;;10.30;5.90;;;;;;;15.61;100.00;101115.41;5055813;28;20464;-67
2021/09/12 05:19:20;;;;;;;12.57;7.67;;;;;;;15.70;100.00;101115.44;5055699;28;20504;-67
2021/09/12 05:21:46;;;;;;;11.10;6.17;;;;;;;15.71;100.00;101112.38;5055712;28;20449;-66
2021/09/12 05:24:14;;;;;;;12.07;6.83;;;;;;;15.76;100.00;101109.50;5055578;28;20465;-67
2021/09/12 05:26:41;;;;;;;10.63;6.80;;;;;;;15.77;100.00;101111.09;5055587;28;20446;-67
2021/09/12 05:29:07;;;;;;;10.73;6.70;;;;;;;15.87;100.00;101113.50;5055510;28;20951;-66
2021/09/12 05:31:34;;;;;;;10.60;5.67;;;;;;;16.00;100.00;101110.91;5055217;28;20963;-69
2021/09/12 05:34:00;;;;;;;11.90;5.90;;;;;;;16.10;100.00;101114.09;5055328;28;20462;-68
2021/09/12 05:36:26;;;;;;;11.60;6.60;;;;;;;16.18;100.00;101119.88;5055408;28;20438;-69
2021/09/12 05:38:53;;;;;;;13.47;7.20;;;;;;;16.26;100.00;101108.91;5055324;28;20481;-69
2021/09/12 05:41:21;;;;;;;13.67;7.43;;;;;;;16.32;100.00;101118.53;5055346;28;20446;-71
2021/09/12 05:43:47;;;;;;;14.60;8.07;;;;;;;16.40;100.00;101116.91;5056470;28;20478;-69
2021/09/12 05:46:14;;;;;;;8.37;5.97;;;;;;;16.45;100.00;101115.91;5055145;28;20438;-71
2021/09/12 05:48:40;;;;;;;14.80;7.57;;;;;;;16.49;100.00;101114.13;5055220;28;20442;-69
2021/09/12 05:51:07;;;;;;;11.87;6.53;;;;;;;16.52;100.00;101114.28;5055099;28;20446;-69
2021/09/12 05:53:33;;;;;;;14.13;7.20;;;;;;;16.58;100.00;101112.97;5054977;28;20450;-70
2021/09/12 05:56:00;;;;;;;9.90;5.87;;;;;;;16.64;100.00;101119.03;5055018;28;20450;-69
2021/09/12 05:58:28;;;;;;;17.17;8.00;;;;;;;16.67;100.00;101114.88;5054897;28;20481;-69
2021/09/12 06:00:54;;;;;;;13.27;7.83;;;;;;;16.70;100.00;101125.16;5054875;28;20444;-68
2021/09/12 06:03:21;;;;;;;14.50;8.13;;;;;;;16.78;100.00;101118.88;5054911;28;20450;-69
2021/09/12 06:05:47;;;;;;;13.30;7.40;;;;;;;16.83;100.00;101127.69;5054953;28;20442;-67
2021/09/12 06:08:14;;;;;;;11.70;6.13;;;;;;;16.89;100.00;101128.28;5054770;28;20458;-69
2021/09/12 06:10:40;;;;;;;10.50;5.87;;;;;;;16.95;100.00;101126.16;5054728;28;20446;-68
2021/09/12 06:13:06;;;;;;;9.07;5.13;;;;;;;17.00;100.00;101135.00;5054684;28;20449;-69
2021/09/12 06:15:34;;;;;;;11.90;6.60;;;;;;;17.09;100.00;101127.53;5054250;28;20832;-69
2021/09/12 06:18:01;;;;;;;14.13;6.90;;;;;;;17.19;100.00;101131.81;5054500;28;20490;-67
2021/09/12 06:20:27;;;;;;;13.77;7.90;;;;;;;17.20;100.00;101132.63;5054856;28;20442;-69
2021/09/12 06:22:54;;;;;;;18.63;6.57;;;;;;;17.21;100.00;101132.28;5055023;28;20446;-68
2021/09/12 06:25:21;;;;;;;9.80;5.60;;;;;;;17.29;100.00;101136.09;5054398;28;20497;-69
2021/09/12 06:27:48;;;;;;;24.97;6.70;;;;;;;17.34;100.00;101138.66;5054408;28;20446;-67
2021/09/12 06:30:15;;;;;;;10.93;6.87;;;;;;;17.43;100.00;101135.84;5054331;28;20446;-68
2021/09/12 06:32:43;;;;;;;9.57;6.07;;;;;;;17.50;100.00;101144.34;5054318;28;20496;-68
2021/09/12 06:35:11;;;;;;;13.20;6.97;;;;;;;17.56;100.00;101143.78;5054286;28;20470;-69
2021/09/12 06:37:38;;;;;;;17.13;6.57;;;;;;;17.59;100.00;101140.38;5054160;28;20446;-69
2021/09/12 06:40:06;;;;;;;11.93;6.60;;;;;;;17.64;100.00;101150.34;5053772;28;20440;-69
2021/09/12 06:42:32;;;;;;;10.53;6.53;;;;;;;17.64;100.00;101156.63;5054157;28;20438;-68
2021/09/12 06:44:59;;;;;;;13.07;6.23;;;;;;;17.75;100.00;101154.31;5053249;28;20987;-68
2021/09/12 06:47:25;;;;;;;15.33;7.87;;;;;;;17.88;100.00;101153.25;5054014;28;20450;-69
2021/09/12 06:49:53;;;;;;;12.03;5.70;;;;;;;18.00;100.00;101159.91;5054045;28;20450;-68
2021/09/12 06:52:20;;;;;;;11.80;6.20;;;;;;;18.11;100.00;101164.63;5054020;28;20445;-69
2021/09/12 06:54:46;;;;;;;11.93;7.30;;;;;;;18.24;100.00;101165.47;5053905;28;20458;-70
2021/09/12 06:57:12;;;;;;;12.90;6.70;;;;;;;18.33;100.00;101166.19;5053954;28;20469;-69
2021/09/12 06:59:39;;;;;;;9.03;5.80;;;;;;;18.45;100.00;101164.59;5053717;28;20482;-69
2021/09/12 07:02:05;;;;;;;11.20;7.03;;;;;;;18.50;100.00;101156.13;5053870;28;20445;-69
2021/09/12 07:04:32;;;;;;;16.23;7.53;;;;;;;18.54;100.00;101162.53;5053700;28;20469;-69
2021/09/12 07:06:59;;;;;;;12.30;6.83;;;;;;;18.54;100.00;101160.59;5053750;28;20442;-70
2021/09/12 07:09:26;;;;;;;13.40;6.97;;;;;;;18.58;100.00;101167.00;5053629;28;20438;-69
2021/09/12 07:11:53;;;;;;;16.07;7.40;;;;;;;18.61;100.00;101168.28;5053527;28;20937;-69
2021/09/12 07:14:19;;;;;;;9.07;5.40;;;;;;;18.67;100.00;101169.66;5053484;28;20466;-69
2021/09/12 07:16:45;;;;;;;13.73;6.90;;;;;;;18.69;100.00;101166.59;5053507;28;20453;-71
2021/09/12 07:19:12;;;;;;;17.60;8.47;;;;;;;18.71;100.00;101178.03;5053434;28;20489;-69
2021/09/12 07:21:38;;;;;;;22.30;6.10;;;;;;;18.70;100.00;101176.44;5053451;28;20443;-69
2021/09/12 07:24:06;;;;;;;13.23;6.87;;;;;;;18.80;100.00;101176.78;5053389;28;20466;-69
2021/09/12 07:26:33;;;;;;;9.77;5.97;;;;;;;18.92;100.00;101183.44;5053350;28;20445;-70
2021/09/12 07:28:59;;;;;;;10.43;5.90;;;;;;;18.97;100.00;101177.72;5053386;28;20454;-69
2021/09/12 07:31:26;;;;;;;7.40;4.87;;;;;;;19.02;100.00;101175.53;5053375;28;20824;-69
2021/09/12 07:33:52;;;;;;;12.57;6.00;;;;;;;19.09;100.00;101194.19;5053235;28;20910;-68
2021/09/12 07:36:19;;;;;;;11.00;6.03;;;;;;;19.10;100.00;101191.09;5053266;28;20447;-68
2021/09/12 07:38:45;;;;;;;9.80;5.30;;;;;;;19.12;100.00;101194.31;5053140;28;20477;-68
2021/09/12 07:41:13;;;;;;;9.57;5.27;;;;;;;19.06;100.00;101192.13;5053472;28;20487;-68
2021/09/12 07:43:39;;;;;;;14.63;5.53;;;;;;;19.07;100.00;101191.78;5052704;28;20851;-69
2021/09/12 07:46:07;;;;;;;8.93;5.87;;;;;;;19.13;100.00;101195.13;5053261;28;20438;-68
2021/09/12 07:48:34;;;;;;;11.30;6.57;;;;;;;19.13;100.00;101189.63;5053083;28;20441;-69
2021/09/12 07:51:02;;;;;;;13.97;7.50;;;;;;;19.17;100.00;101196.03;5053253;28;20447;-68
2021/09/12 07:53:28;;;;;;;13.27;6.40;;;;;;;19.20;100.00;101195.31;5052944;28;20472;-69
2021/09/12 07:55:55;;;;;;;10.57;5.53;;;;;;;19.23;100.00;101197.38;5053124;28;20453;-67
2021/09/12 07:58:22;;;;;;;10.33;6.33;;;;;;;19.22;100.00;101205.97;5055851;28;20508;-69
2021/09/12 08:00:49;;;;;;;14.47;6.20;;;;;;;19.16;100.00;101203.44;5057243;28;20469;-68
2021/09/12 08:03:15;;;;;;;9.10;5.80;;;;;;;19.20;100.00;101200.03;5057322;28;20453;-69
2021/09/12 08:05:42;;;;;;;11.73;6.17;;;;;;;19.21;100.00;101201.59;5057105;28;20466;-70
2021/09/12 08:08:08;;;;;;;10.10;5.10;;;;;;;19.23;100.00;101200.13;5057085;28;20443;-70
2021/09/12 08:10:35;;;;;;;9.47;6.13;;;;;;;19.28;100.00;101205.38;5056920;28;20465;-70
2021/09/12 08:13:01;;;;;;;13.23;6.77;;;;;;;19.30;100.00;101208.59;5056940;28;20453;-69
2021/09/12 08:15:29;;;;;;;13.80;6.40;;;;;;;19.27;100.00;101211.25;5056919;28;20773;-68
2021/09/12 08:17:55;;;;;;;10.43;5.33;;;;;;;19.31;100.00;101221.19;5075268;28;20445;-69
2021/09/12 08:20:22;;;;;;;11.93;6.03;;;;;;;19.38;100.00;101213.16;5076729;28;20499;-69
2021/09/12 08:22:49;;;;;;;11.33;6.47;;;;;;;19.39;100.00;101209.28;5076868;28;20437;-70
2021/09/12 08:25:15;;;;;;;15.73;8.40;;;;;;;19.33;98.96;101212.59;5076653;28;20469;-68
2021/09/12 08:27:42;;;;;;;13.00;6.47;;;;;;;19.34;99.74;101211.44;5076715;28;20456;-69
2021/09/12 08:30:09;;;;;;;12.60;6.80;;;;;;;19.31;99.44;101214.91;5076681;28;20486;-69
2021/09/12 08:32:37;;;;;;;10.10;5.90;;;;;;;19.47;99.71;101217.72;5076604;28;20448;-69
2021/09/12 08:35:04;;;;;;;12.57;6.43;;;;;;;19.52;99.79;101215.56;5076596;28;20461;-68
2021/09/12 08:37:30;;;;;;;10.57;6.50;;;;;;;19.46;100.00;101221.63;5076580;28;20449;-69
2021/09/12 08:39:57;;;;;;;8.23;5.43;;;;;;;19.63;99.97;101222.19;5076431;28;20484;-69
2021/09/12 08:42:24;;;;;;;16.20;6.83;;;;;;;19.91;99.35;101219.47;5076486;28;20444;-69
2021/09/12 08:44:52;;;;;;;12.90;7.37;;;;;;;20.16;96.98;101219.41;5075975;28;20485;-69
2021/09/12 08:47:19;;;;;;;14.03;7.30;;;;;;;20.34;95.54;101217.94;5076379;28;20464;-69
2021/09/12 08:49:47;;;;;;;9.70;5.27;;;;;;;20.57;95.04;101226.44;5075941;28;20787;-69
2021/09/12 08:52:15;;;;;;;12.67;6.70;;;;;;;20.54;94.23;101229.91;5076396;28;20445;-69
2021/09/12 08:54:42;;;;;;;12.30;7.60;;;;;;;20.57;95.08;101223.69;5076216;28;20457;-69
2021/09/12 08:57:09;;;;;;;11.47;5.57;;;;;;;20.51;95.58;101216.84;5059783;28;20556;-69
2021/09/12 08:59:36;;;;;;;10.50;5.30;;;;;;;20.56;95.52;101221.28;5056003;28;20489;-69
2021/09/12 09:02:05;;;;;;;12.70;6.60;;;;;;;20.49;94.32;101221.09;5055741;28;20952;-69
2021/09/12 09:04:34;;;;;;;14.20;7.07;;;;;;;20.47;93.63;101224.19;5055786;28;20462;-69
2021/09/12 09:07:04;;;;;;;12.90;7.23;;;;;;;20.47;93.66;101226.13;5055959;28;20449;-68
2021/09/12 09:09:42;;;;;;;11.10;6.00;;;;;;;20.54;94.18;101223.59;5055514;28;20419;-68
2021/09/12 09:12:28;;;;;;;10.77;6.43;;;;;;;20.65;94.47;101216.41;5055213;28;20466;-68
2021/09/12 09:15:02;;;;;;;15.53;6.23;;;;;;;20.71;93.37;101219.69;5055758;28;20462;-69
2021/09/12 09:17:29;;;;;;;10.10;6.40;;;;;;;20.70;92.78;101226.38;5055364;28;20849;-68
2021/09/12 09:19:56;;;;;;;15.10;7.73;;;;;;;20.70;92.97;101215.34;5055885;28;20486;-69
2021/09/12 09:22:32;;;;;;;11.40;6.27;;;;;;;20.84;93.58;101218.47;5055743;28;20446;-68
2021/09/12 09:24:59;;;;;;;10.67;6.30;;;;;;;20.88;92.65;101220.16;5055591;28;20484;-69
2021/09/12 09:27:25;;;;;;;11.60;7.20;;;;;;;20.89;92.41;101216.28;5055595;28;20442;-71
2021/09/12 09:29:55;;;;;;;11.30;7.00;;;;;;;20.89;92.20;101218.19;5055584;28;20445;-72
2021/09/12 09:32:22;;;;;;;12.87;6.63;;;;;;;20.87;90.88;101215.00;5055290;28;20950;-71
2021/09/12 09:34:48;;;;;;;13.07;7.17;;;;;;;20.93;92.03;101210.81;5055352;28;20466;-69
2021/09/12 09:37:17;;;;;;;16.73;7.20;;;;;;;21.02;91.65;101216.94;5055478;28;20500;-70
2021/09/12 09:39:47;;;;;;;12.20;7.07;;;;;;;21.09;90.81;101211.63;5055300;28;20482;-72
2021/09/12 09:42:35;;;;;;;12.97;6.43;;;;;;;21.17;90.83;101212.59;5055049;28;20816;-71
2021/09/12 09:45:03;;;;;;;19.80;7.20;;;;;;;21.24;89.67;101209.19;5054895;28;20477;-70
2021/09/12 09:47:29;;;;;;;12.97;6.77;;;;;;;21.30;88.88;101205.81;5055090;28;20963;-70
2021/09/12 09:50:05;;;;;;;13.67;7.07;;;;;;;21.12;89.29;101205.41;5055241;28;20438;-71
2021/09/12 09:52:33;;;;;;;12.77;6.07;;;;;;;21.14;89.91;101205.84;5055166;28;20442;-70
2021/09/12 09:55:01;;;;;;;8.90;5.40;;;;;;;21.19;89.36;101206.72;5055053;28;20458;-70
2021/09/12 09:57:29;;;;;;;8.43;5.33;;;;;;;21.27;89.14;101200.22;5055016;28;20474;-71
2021/09/12 09:59:57;;;;;;;11.83;6.57;;;;;;;21.42;89.53;101205.72;5054909;28;20903;-71
2021/09/12 10:02:24;;;;;;;9.80;5.17;;;;;;;21.59;89.43;101200.97;5055007;28;20446;-71
2021/09/12 10:04:50;;;;;;;7.73;4.63;;;;;;;21.71;88.68;101192.56;5054810;28;20466;-70
2021/09/12 10:07:19;;;;;;;10.63;5.73;;;;;;;21.80;88.19;101189.59;5054897;28;20442;-70
2021/09/12 10:09:46;;;;;;;19.87;6.70;;;;;;;21.70;86.97;101198.44;5054733;28;20438;-71
2021/09/12 10:12:15;;;;;;;11.37;5.80;;;;;;;21.62;86.50;101195.53;5054760;28;20470;-69
2021/09/12 10:14:51;;;;;;;10.03;5.80;;;;;;;21.59;87.74;101195.44;5054701;28;20458;-72
2021/09/12 10:17:21;;;;;;;11.60;5.47;;;;;;;21.58;87.79;101193.84;5054439;28;20810;-74
2021/09/12 10:19:48;;;;;;;11.90;5.30;;;;;;;21.79;88.50;101201.78;5053650;28;20471;-68
2021/09/12 10:22:17;;;;;;;9.90;6.50;;;;;;;21.89;86.54;101203.97;5054584;28;20430;-69
2021/09/12 10:25:09;;;;;;;12.03;6.20;;;;;;;21.71;86.67;101203.59;5054041;28;20908;-69
2021/09/12 10:27:39;;;;;;;9.00;5.37;;;;;;;21.69;87.09;101192.09;5054370;28;20453;-69
2021/09/12 10:30:29;;;;;;;9.60;5.37;;;;;;;21.76;85.89;101199.75;5054328;28;20497;-69
2021/09/12 10:33:20;;;;;;;9.80;4.83;;;;;;;21.86;86.23;101191.69;5054372;28;20473;-70
2021/09/12 10:35:52;;;;;;;8.17;4.77;;;;;;;22.17;85.25;101193.50;5053928;28;20431;-70
2021/09/12 10:38:25;;;;;;;7.20;4.53;;;;;;;22.44;84.64;101196.38;5053875;28;21038;-70
2021/09/12 10:41:10;;;;;;;7.00;4.73;;;;;;;22.59;83.86;101191.91;5053998;28;20470;-69
2021/09/12 10:43:46;;;;;;;7.57;5.03;;;;;;;22.55;83.79;101193.81;5053469;28;20458;-69
2021/09/12 10:46:29;;;;;;;12.07;6.50;;;;;;;22.55;82.48;101196.56;5054224;28;20460;-69
2021/09/12 10:49:09;;;;;;;8.13;4.17;;;;;;;22.69;83.10;101209.84;5053671;28;20442;-68
2021/09/12 10:51:40;;;;;;;8.60;4.67;;;;;;;22.70;80.92;101208.66;5053958;28;20520;-68
2021/09/12 10:54:07;;;;;;;7.63;4.53;;;;;;;22.52;82.37;101211.09;5053810;28;20477;-68
2021/09/12 10:56:34;;;;;;;8.67;4.87;;;;;;;22.57;82.08;101208.03;5053933;28;20450;-68
2021/09/12 10:59:04;;;;;;;7.47;4.10;;;;;;;22.69;81.45;101207.88;5053818;28;20450;-68
2021/09/12 11:01:33;;;;;;;7.10;5.00;;;;;;;22.81;79.60;101207.69;5053454;28;20473;-68
2021/09/12 11:04:01;;;;;;;5.90;4.43;;;;;;;22.93;79.15;101203.94;5053693;28;20552;-68
2021/09/12 11:06:30;;;;;;;7.10;4.40;;;;;;;22.95;77.96;101195.31;5053726;28;20450;-67
2021/09/12 11:08:57;;;;;;;10.97;5.10;;;;;;;22.98;77.70;101200.88;5053825;28;20450;-68
2021/09/12 11:11:24;;;;;;;4.83;4.03;;;;;;;23.15;78.34;101197.59;5053671;28;20819;-69
2021/09/12 11:13:53;;;;;;;5.97;3.73;;;;;;;23.51;76.65;101194.56;5052876;28;20462;-68